createdAt,value
2023-10-09T00:03:39.518Z,12.77
2023-10-09T00:08:45.781Z,12.46
2023-10-09T00:13:58.599Z,12.21
2023-10-09T00:19:31.286Z,12.17
2023-10-09T00:24:34.128Z,12.14
2023-10-09T00:29:39.475Z,11.84
2023-10-09T00:34:41.442Z,12.21
2023-10-09T00:39:49.526Z,12.39
2023-10-09T00:44:51.265Z,12.18
2023-10-09T00:50:00.633Z,12.12
2023-10-09T00:55:27.548Z,12.45
2023-10-09T01:00:46.738Z,12.30
2023-10-09T01:05:59.569Z,12.21
2023-10-09T01:11:10.861Z,12.35
2023-10-09T01:16:18.388Z,12.67
2023-10-09T01:21:25.447Z,12.21
2023-10-09T01:26:27.160Z,12.02
2023-10-09T01:31:35.089Z,12.14
2023-10-09T01:36:40.177Z,12.12
2023-10-09T01:41:47.891Z,12.68
2023-10-09T01:46:49.799Z,12.45
2023-10-09T01:51:51.638Z,12.06
2023-10-09T01:56:54.837Z,12.19
2023-10-09T02:01:59.574Z,12.10
2023-10-09T02:07:01.135Z,11.97
2023-10-09T02:12:03.423Z,12.02
2023-10-09T02:17:10.448Z,12.35
2023-10-09T02:22:15.002Z,11.76
2023-10-09T02:27:39.293Z,12.16
2023-10-09T02:32:41.258Z,12.06
2023-10-09T02:37:43.152Z,12.41
2023-10-09T02:42:44.694Z,11.72
2023-10-09T02:47:49.458Z,11.96
2023-10-09T02:53:00.124Z,12.20
2023-10-09T02:58:09.052Z,11.85
2023-10-09T03:03:10.761Z,11.77
2023-10-09T03:08:13.440Z,11.66
2023-10-09T03:13:20.351Z,11.82
2023-10-09T03:18:23.512Z,11.97
2023-10-09T03:23:25.044Z,12.20
2023-10-09T03:28:27.393Z,11.93
2023-10-09T03:33:28.967Z,12.25
2023-10-09T03:38:35.476Z,12.25
2023-10-09T03:43:42.153Z,12.23
2023-10-09T03:48:46.367Z,11.83
2023-10-09T03:53:52.045Z,11.90
2023-10-09T03:58:54.365Z,11.90
2023-10-09T04:04:04.403Z,12.36
2023-10-09T04:09:20.286Z,11.82
2023-10-09T04:14:33.364Z,12.10
2023-10-09T04:19:49.441Z,11.88
2023-10-09T04:24:52.503Z,12.37
2023-10-09T04:29:55.522Z,12.34
2023-10-09T04:35:16.996Z,12.02
2023-10-09T04:40:38.033Z,12.48
2023-10-09T04:45:45.420Z,12.62
2023-10-09T04:51:09.645Z,12.20
2023-10-09T04:56:16.838Z,12.14
2023-10-09T05:01:37.153Z,12.34
2023-10-09T05:06:55.733Z,11.75
2023-10-09T05:12:10.732Z,12.05
2023-10-09T05:17:17.006Z,12.46
2023-10-09T05:22:31.518Z,12.24
2023-10-09T05:27:51.956Z,12.23
2023-10-09T05:33:21.094Z,11.63
2023-10-09T05:38:26.189Z,11.88
2023-10-09T05:43:46.471Z,11.98
2023-10-09T05:48:55.542Z,11.91
2023-10-09T05:54:13.115Z,12.32
2023-10-09T05:59:33.320Z,12.49
2023-10-09T06:04:50.779Z,12.37
2023-10-09T06:09:56.635Z,12.18
2023-10-09T06:15:20.601Z,12.15
2023-10-09T06:20:40.508Z,12.46
2023-10-09T06:25:52.077Z,12.27
2023-10-09T06:30:53.588Z,12.35
2023-10-09T06:35:55.089Z,11.87
2023-10-09T06:41:05.588Z,12.04
2023-10-09T06:46:38.191Z,12.12
2023-10-09T06:51:42.606Z,12.30
2023-10-09T06:57:10.203Z,12.18
2023-10-09T07:02:27.032Z,12.47
2023-10-09T07:07:28.607Z,12.30
2023-10-09T07:12:33.863Z,12.69
2023-10-09T07:17:35.484Z,12.36
2023-10-09T07:22:57.622Z,12.36
2023-10-09T07:28:01.050Z,12.37
2023-10-09T07:33:14.135Z,12.44
2023-10-09T07:38:24.325Z,12.44
2023-10-09T07:43:36.740Z,12.77
2023-10-09T07:48:49.898Z,12.77
2023-10-09T07:53:58.214Z,12.75
2023-10-09T07:59:01.449Z,13.17
2023-10-09T08:04:12.026Z,13.57
2023-10-09T08:09:19.764Z,13.67
2023-10-09T08:14:36.580Z,13.62
2023-10-09T08:19:59.330Z,14.04
2023-10-09T08:25:03.545Z,13.85
2023-10-09T08:30:26.922Z,14.00
2023-10-09T08:35:35.208Z,13.91
2023-10-09T08:40:42.980Z,13.74
2023-10-09T08:45:54.424Z,13.66
2023-10-09T08:50:57.146Z,13.82
2023-10-09T08:55:58.795Z,13.79
2023-10-09T09:01:01.910Z,13.89
2023-10-09T09:06:03.968Z,13.69
2023-10-09T09:11:24.135Z,13.79
2023-10-09T09:16:32.934Z,13.80
2023-10-09T09:21:41.998Z,13.82
2023-10-09T09:26:47.785Z,13.97
2023-10-09T09:31:58.985Z,13.78
2023-10-09T09:37:04.719Z,13.73
2023-10-09T09:42:15.316Z,13.87
2023-10-09T09:47:29.220Z,13.87
2023-10-09T09:52:39.564Z,13.91
2023-10-09T09:57:42.184Z,13.76
2023-10-09T10:02:46.431Z,13.95
2023-10-09T10:07:50.634Z,13.87
2023-10-09T10:13:01.316Z,13.91
2023-10-09T10:18:06.298Z,13.83
2023-10-09T10:23:20.994Z,13.84
2023-10-09T10:28:40.350Z,13.91
2023-10-09T10:33:57.056Z,13.80
2023-10-09T10:39:06.108Z,13.95
2023-10-09T10:44:26.324Z,13.95
2023-10-09T10:49:37.713Z,13.98
2023-10-09T10:54:39.341Z,14.19
2023-10-09T10:59:42.824Z,14.14
2023-10-09T11:04:54.670Z,14.23
2023-10-09T11:10:06.395Z,14.11
2023-10-09T11:15:10.004Z,14.13
2023-10-09T11:20:33.403Z,14.16
2023-10-09T11:25:35.377Z,14.26
2023-10-09T11:30:37.268Z,14.21
2023-10-09T11:35:38.834Z,14.29
2023-10-09T11:41:07.408Z,14.29
2023-10-09T11:46:12.524Z,14.25
2023-10-09T11:51:20.747Z,14.27
2023-10-09T11:56:28.186Z,14.23
2023-10-09T12:01:36.443Z,14.20
2023-10-09T12:06:38.295Z,14.37
2023-10-09T12:11:54.060Z,14.14
2023-10-09T12:17:06.808Z,14.30
2023-10-09T12:22:17.203Z,14.34
2023-10-09T12:27:21.294Z,14.36
2023-10-09T12:32:22.856Z,14.50
2023-10-09T12:37:24.350Z,14.32
2023-10-09T12:42:25.925Z,14.27
2023-10-09T12:47:27.772Z,14.39
2023-10-09T12:52:31.087Z,14.34
2023-10-09T12:57:32.837Z,14.29
2023-10-09T13:02:35.068Z,14.17
2023-10-09T13:07:36.787Z,14.53
2023-10-09T13:12:44.284Z,14.33
2023-10-09T13:17:45.819Z,14.32
2023-10-09T13:22:50.855Z,14.32
2023-10-09T13:27:52.439Z,14.35
2023-10-09T13:32:54.047Z,14.29
2023-10-09T13:37:55.620Z,14.44
2023-10-09T13:42:59.916Z,14.38
2023-10-09T13:48:04.226Z,14.61
2023-10-09T13:53:11.804Z,14.61
2023-10-09T13:58:15.369Z,14.73
2023-10-09T14:03:20.989Z,14.79
2023-10-09T14:08:27.420Z,14.73
2023-10-09T14:13:30.044Z,14.55
2023-10-09T14:18:32.098Z,14.69
2023-10-09T14:23:35.733Z,14.63
2023-10-09T14:28:38.477Z,14.83
2023-10-09T14:33:41.551Z,14.67
2023-10-09T14:38:43.496Z,14.64
2023-10-09T14:43:45.072Z,14.52
2023-10-09T14:48:47.215Z,14.55
2023-10-09T14:53:50.561Z,14.61
2023-10-09T14:58:52.525Z,14.57
2023-10-09T15:03:56.415Z,14.55
2023-10-09T15:09:09.110Z,14.48
2023-10-09T15:14:10.761Z,14.48
2023-10-09T15:19:12.632Z,14.37
2023-10-09T15:24:20.552Z,14.38
2023-10-09T15:29:24.829Z,14.28
2023-10-09T15:34:28.424Z,14.50
2023-10-09T15:39:29.957Z,14.35
2023-10-09T15:44:34.848Z,14.51
2023-10-09T15:49:42.479Z,14.50
2023-10-09T15:54:44.478Z,14.29
2023-10-09T15:59:46.341Z,14.70
2023-10-09T16:04:47.897Z,14.61
2023-10-09T16:09:50.218Z,14.72
2023-10-09T16:14:51.806Z,14.66
2023-10-09T16:19:53.373Z,14.75
2023-10-09T16:25:00.572Z,14.70
2023-10-09T16:30:06.630Z,14.61
2023-10-09T16:35:11.037Z,14.81
2023-10-09T16:40:14.268Z,14.92
2023-10-09T16:45:18.425Z,14.86
2023-10-09T16:50:20.742Z,14.88
2023-10-09T16:55:22.988Z,14.75
2023-10-09T17:00:30.917Z,14.78
2023-10-09T17:05:37.447Z,14.80
2023-10-09T17:10:46.344Z,14.85
2023-10-09T17:15:54.199Z,14.60
2023-10-09T17:20:56.254Z,14.85
2023-10-09T17:26:03.832Z,14.61
2023-10-09T17:31:05.610Z,14.87
2023-10-09T17:36:07.798Z,14.74
2023-10-09T17:41:09.998Z,14.83
2023-10-09T17:46:13.057Z,14.81
2023-10-09T17:51:15.895Z,14.82
2023-10-09T17:56:19.639Z,14.80
2023-10-09T18:01:25.701Z,14.99
2023-10-09T18:06:27.690Z,14.99
2023-10-09T18:11:29.654Z,14.83
2023-10-09T18:16:31.244Z,14.76
2023-10-09T18:21:36.873Z,14.86
2023-10-09T18:26:38.412Z,15.03
2023-10-09T18:31:41.958Z,14.89
2023-10-09T18:36:43.524Z,15.02
2023-10-09T18:41:45.753Z,15.06
2023-10-09T18:46:51.169Z,15.03
2023-10-09T18:51:52.809Z,14.95
2023-10-09T18:56:54.439Z,14.96
2023-10-09T19:01:56.606Z,14.94
2023-10-09T19:06:59.104Z,14.83
2023-10-09T19:12:00.673Z,14.85
2023-10-09T19:17:02.323Z,14.88
2023-10-09T19:22:04.215Z,15.19
2023-10-09T19:27:06.090Z,15.15
2023-10-09T19:32:08.945Z,15.18
2023-10-09T19:37:10.665Z,15.08
2023-10-09T19:42:13.066Z,15.09
2023-10-09T19:47:14.738Z,15.06
2023-10-09T19:52:18.702Z,15.04
2023-10-09T19:57:20.924Z,15.02
2023-10-09T20:02:22.672Z,15.05
2023-10-09T20:07:24.303Z,15.20
2023-10-09T20:12:30.904Z,15.11
2023-10-09T20:17:33.662Z,15.06
2023-10-09T20:22:36.436Z,15.06
2023-10-09T20:27:37.924Z,15.18
2023-10-09T20:32:41.269Z,15.01
2023-10-09T20:37:44.633Z,15.09
2023-10-09T20:42:48.490Z,15.20
2023-10-09T20:47:57.153Z,15.29
2023-10-09T20:52:59.938Z,15.03
2023-10-09T20:58:01.806Z,14.89
2023-10-09T21:03:07.184Z,15.21
2023-10-09T21:08:10.327Z,14.99
2023-10-09T21:13:11.884Z,15.19
2023-10-09T21:18:13.538Z,15.08
2023-10-09T21:23:15.470Z,15.14
2023-10-09T21:28:16.996Z,15.01
2023-10-09T21:33:18.548Z,15.19
2023-10-09T21:38:20.257Z,15.09
2023-10-09T21:43:21.800Z,15.16
2023-10-09T21:48:23.502Z,15.09
2023-10-09T21:53:25.103Z,15.21
2023-10-09T21:58:26.761Z,15.08
2023-10-09T22:03:28.431Z,15.07
2023-10-09T22:08:30.210Z,15.08
2023-10-09T22:13:31.743Z,15.22
2023-10-09T22:18:33.538Z,15.15
2023-10-09T22:23:36.677Z,15.02
2023-10-09T22:28:41.481Z,15.07
2023-10-09T22:33:46.913Z,15.21
2023-10-09T22:38:58.325Z,15.00
2023-10-09T22:44:00.666Z,15.20
2023-10-09T22:49:14.762Z,15.25
2023-10-09T22:54:24.105Z,15.07
2023-10-09T22:59:28.108Z,15.05
2023-10-09T23:04:37.990Z,15.09
2023-10-09T23:09:50.354Z,15.16
2023-10-09T23:14:56.281Z,15.02
2023-10-09T23:19:58.179Z,15.04
2023-10-09T23:25:09.731Z,15.08
2023-10-09T23:30:26.516Z,15.27
2023-10-09T23:35:45.105Z,15.15
2023-10-09T23:40:46.670Z,15.14
2023-10-09T23:45:48.549Z,15.13
2023-10-09T23:50:56.965Z,15.18
2023-10-09T23:56:09.375Z,15.12
